Port Jefferson, Ohio
Current Conditions -  °F | °C
As of 8:30 PM on Tuesday 25 Nov 2014 (Local Time) from KEDJ Reporting Station
Overcast Overcast  
Wind Chill: 28°   Ceiling: 1400
Heat Index: 28°   Visibility: 10mi
Dew Point: 23°   Wind: 3mph
Humidity: 80%   Direction: 290°WNW
Pressure: 30.17"   Gusts: NA
Location:  40.33°N, 84.09°W
Report Text: KEDJ 260130Z AUTO 29003KT 10SM OVC014 M02/M05 A3017 RMK AO1
Loading
Personal Weather Stations






























Interactive Weather Map New forecast layout! Learn more

10-Day Weather Forecast

Advertisements
Track Severe Weather on mobile